sensor_id;sensor_type;location;lat;lon;timestamp;P1;durP1;ratioP1;P2;durP2;ratioP2
11771;SDS011;12556;55.748;13.194;2023-05-16T00:00:37;6.37;;;3.87;;
11771;SDS011;12556;55.748;13.194;2023-05-16T00:03:06;5.60;;;4.40;;
11771;SDS011;12556;55.748;13.194;2023-05-16T00:05:34;5.27;;;4.00;;
11771;SDS011;12556;55.748;13.194;2023-05-16T00:08:02;4.97;;;4.27;;
11771;SDS011;12556;55.748;13.194;2023-05-16T00:10:29;5.20;;;3.70;;
11771;SDS011;12556;55.748;13.194;2023-05-16T00:12:56;7.37;;;4.23;;
11771;SDS011;12556;55.748;13.194;2023-05-16T00:15:26;4.13;;;3.73;;
11771;SDS011;12556;55.748;13.194;2023-05-16T00:17:53;6.80;;;4.30;;
11771;SDS011;12556;55.748;13.194;2023-05-16T00:20:25;4.47;;;4.07;;
11771;SDS011;12556;55.748;13.194;2023-05-16T00:22:52;4.57;;;4.17;;
11771;SDS011;12556;55.748;13.194;2023-05-16T00:25:19;5.53;;;4.40;;
11771;SDS011;12556;55.748;13.194;2023-05-16T00:27:46;6.77;;;4.13;;
11771;SDS011;12556;55.748;13.194;2023-05-16T00:30:13;6.43;;;4.10;;
11771;SDS011;12556;55.748;13.194;2023-05-16T00:32:40;9.70;;;4.80;;
11771;SDS011;12556;55.748;13.194;2023-05-16T00:35:08;7.23;;;4.27;;
11771;SDS011;12556;55.748;13.194;2023-05-16T00:37:37;7.13;;;4.23;;
11771;SDS011;12556;55.748;13.194;2023-05-16T00:40:05;8.23;;;4.43;;
11771;SDS011;12556;55.748;13.194;2023-05-16T00:42:32;4.60;;;4.07;;
11771;SDS011;12556;55.748;13.194;2023-05-16T00:44:59;6.30;;;4.07;;
11771;SDS011;12556;55.748;13.194;2023-05-16T00:47:26;5.13;;;4.33;;
11771;SDS011;12556;55.748;13.194;2023-05-16T00:49:53;5.77;;;4.57;;
11771;SDS011;12556;55.748;13.194;2023-05-16T00:52:20;5.60;;;4.13;;
11771;SDS011;12556;55.748;13.194;2023-05-16T00:54:49;4.43;;;4.03;;
11771;SDS011;12556;55.748;13.194;2023-05-16T00:57:16;5.40;;;4.23;;
11771;SDS011;12556;55.748;13.194;2023-05-16T00:59:44;4.47;;;4.00;;
11771;SDS011;12556;55.748;13.194;2023-05-16T01:02:11;5.03;;;4.23;;
11771;SDS011;12556;55.748;13.194;2023-05-16T01:04:39;4.70;;;4.30;;
11771;SDS011;12556;55.748;13.194;2023-05-16T01:07:06;5.73;;;4.00;;
11771;SDS011;12556;55.748;13.194;2023-05-16T01:09:33;5.50;;;4.07;;
11771;SDS011;12556;55.748;13.194;2023-05-16T01:12:04;5.47;;;4.20;;
11771;SDS011;12556;55.748;13.194;2023-05-16T01:14:37;4.77;;;4.27;;
11771;SDS011;12556;55.748;13.194;2023-05-16T01:17:12;6.03;;;4.03;;
11771;SDS011;12556;55.748;13.194;2023-05-16T01:19:54;4.50;;;4.10;;
11771;SDS011;12556;55.748;13.194;2023-05-16T01:22:29;5.77;;;4.00;;
11771;SDS011;12556;55.748;13.194;2023-05-16T01:25:18;5.13;;;3.93;;
11771;SDS011;12556;55.748;13.194;2023-05-16T01:27:54;3.97;;;3.63;;
11771;SDS011;12556;55.748;13.194;2023-05-16T01:30:23;6.50;;;3.93;;
11771;SDS011;12556;55.748;13.194;2023-05-16T01:32:50;4.37;;;3.50;;
11771;SDS011;12556;55.748;13.194;2023-05-16T01:35:17;5.53;;;4.00;;
11771;SDS011;12556;55.748;13.194;2023-05-16T01:37:46;4.00;;;3.70;;
11771;SDS011;12556;55.748;13.194;2023-05-16T01:40:20;7.83;;;3.73;;
11771;SDS011;12556;55.748;13.194;2023-05-16T01:42:51;4.23;;;3.83;;
11771;SDS011;12556;55.748;13.194;2023-05-16T01:45:27;4.67;;;3.53;;
11771;SDS011;12556;55.748;13.194;2023-05-16T01:47:57;4.63;;;3.80;;
11771;SDS011;12556;55.748;13.194;2023-05-16T01:50:31;5.33;;;4.23;;
11771;SDS011;12556;55.748;13.194;2023-05-16T01:53:02;4.60;;;3.70;;
11771;SDS011;12556;55.748;13.194;2023-05-16T01:55:37;6.70;;;4.17;;
11771;SDS011;12556;55.748;13.194;2023-05-16T01:58:10;4.43;;;3.70;;
11771;SDS011;12556;55.748;13.194;2023-05-16T02:00:38;5.43;;;3.57;;
11771;SDS011;12556;55.748;13.194;2023-05-16T02:03:05;8.10;;;4.03;;
11771;SDS011;12556;55.748;13.194;2023-05-16T02:05:33;7.57;;;3.70;;
11771;SDS011;12556;55.748;13.194;2023-05-16T02:08:00;6.40;;;4.30;;
11771;SDS011;12556;55.748;13.194;2023-05-16T02:10:27;6.60;;;4.93;;
11771;SDS011;12556;55.748;13.194;2023-05-16T02:12:54;7.97;;;5.60;;
11771;SDS011;12556;55.748;13.194;2023-05-16T02:15:22;6.57;;;5.50;;
11771;SDS011;12556;55.748;13.194;2023-05-16T02:17:49;6.53;;;5.93;;
11771;SDS011;12556;55.748;13.194;2023-05-16T02:20:16;7.77;;;6.77;;
11771;SDS011;12556;55.748;13.194;2023-05-16T02:22:43;9.17;;;7.33;;
11771;SDS011;12556;55.748;13.194;2023-05-16T02:25:12;9.40;;;7.97;;
11771;SDS011;12556;55.748;13.194;2023-05-16T02:27:40;9.63;;;8.70;;
11771;SDS011;12556;55.748;13.194;2023-05-16T02:30:08;9.90;;;8.90;;
11771;SDS011;12556;55.748;13.194;2023-05-16T02:32:37;12.00;;;10.40;;
11771;SDS011;12556;55.748;13.194;2023-05-16T02:35:04;14.27;;;10.10;;
11771;SDS011;12556;55.748;13.194;2023-05-16T02:37:32;13.50;;;11.07;;
11771;SDS011;12556;55.748;13.194;2023-05-16T02:39:59;15.37;;;12.60;;
11771;SDS011;12556;55.748;13.194;2023-05-16T02:42:25;17.33;;;13.80;;
11771;SDS011;12556;55.748;13.194;2023-05-16T02:44:53;17.60;;;13.97;;
11771;SDS011;12556;55.748;13.194;2023-05-16T02:47:20;19.17;;;14.80;;
11771;SDS011;12556;55.748;13.194;2023-05-16T02:49:48;20.40;;;16.23;;
11771;SDS011;12556;55.748;13.194;2023-05-16T02:52:16;19.53;;;16.50;;
11771;SDS011;12556;55.748;13.194;2023-05-16T02:54:43;23.07;;;17.23;;
11771;SDS011;12556;55.748;13.194;2023-05-16T02:57:10;26.30;;;18.27;;
11771;SDS011;12556;55.748;13.194;2023-05-16T02:59:37;23.00;;;18.50;;
11771;SDS011;12556;55.748;13.194;2023-05-16T03:02:04;23.47;;;16.30;;
11771;SDS011;12556;55.748;13.194;2023-05-16T03:04:31;24.30;;;16.03;;
11771;SDS011;12556;55.748;13.194;2023-05-16T03:07:00;19.53;;;15.70;;
11771;SDS011;12556;55.748;13.194;2023-05-16T03:09:26;22.53;;;16.07;;
11771;SDS011;12556;55.748;13.194;2023-05-16T03:11:53;20.03;;;14.27;;
11771;SDS011;12556;55.748;13.194;2023-05-16T03:14:21;20.67;;;14.97;;
11771;SDS011;12556;55.748;13.194;2023-05-16T03:16:47;20.73;;;14.87;;
11771;SDS011;12556;55.748;13.194;2023-05-16T03:19:14;19.83;;;15.60;;
11771;SDS011;12556;55.748;13.194;2023-05-16T03:21:41;20.00;;;15.40;;
11771;SDS011;12556;55.748;13.194;2023-05-16T03:24:10;22.70;;;15.93;;
11771;SDS011;12556;55.748;13.194;2023-05-16T03:26:37;26.23;;;17.03;;
11771;SDS011;12556;55.748;13.194;2023-05-16T03:29:04;21.60;;;15.77;;
11771;SDS011;12556;55.748;13.194;2023-05-16T03:31:31;22.33;;;16.57;;
11771;SDS011;12556;55.748;13.194;2023-05-16T03:33:58;22.17;;;15.53;;
11771;SDS011;12556;55.748;13.194;2023-05-16T03:36:25;21.10;;;15.77;;
11771;SDS011;12556;55.748;13.194;2023-05-16T03:38:52;25.20;;;15.37;;
11771;SDS011;12556;55.748;13.194;2023-05-16T03:41:21;20.77;;;14.77;;
11771;SDS011;12556;55.748;13.194;2023-05-16T03:43:48;22.60;;;14.73;;
11771;SDS011;12556;55.748;13.194;2023-05-16T03:46:15;23.53;;;14.70;;
11771;SDS011;12556;55.748;13.194;2023-05-16T03:48:42;25.70;;;15.17;;
11771;SDS011;12556;55.748;13.194;2023-05-16T03:51:09;18.00;;;13.87;;
11771;SDS011;12556;55.748;13.194;2023-05-16T03:53:36;16.70;;;13.77;;
11771;SDS011;12556;55.748;13.194;2023-05-16T03:56:03;18.43;;;13.13;;
11771;SDS011;12556;55.748;13.194;2023-05-16T03:58:32;21.43;;;14.10;;
11771;SDS011;12556;55.748;13.194;2023-05-16T04:00:59;16.13;;;14.13;;
11771;SDS011;12556;55.748;13.194;2023-05-16T04:03:26;21.87;;;14.10;;
11771;SDS011;12556;55.748;13.194;2023-05-16T04:05:54;18.07;;;14.53;;
11771;SDS011;12556;55.748;13.194;2023-05-16T04:08:21;16.60;;;13.57;;
11771;SDS011;12556;55.748;13.194;2023-05-16T04:10:51;20.20;;;14.73;;
11771;SDS011;12556;55.748;13.194;2023-05-16T04:13:18;20.73;;;13.47;;
11771;SDS011;12556;55.748;13.194;2023-05-16T04:15:52;19.90;;;13.80;;
11771;SDS011;12556;55.748;13.194;2023-05-16T04:18:22;18.13;;;14.23;;
11771;SDS011;12556;55.748;13.194;2023-05-16T04:20:50;22.33;;;15.40;;
11771;SDS011;12556;55.748;13.194;2023-05-16T04:23:16;19.13;;;15.13;;
11771;SDS011;12556;55.748;13.194;2023-05-16T04:25:43;19.10;;;15.80;;
11771;SDS011;12556;55.748;13.194;2023-05-16T04:28:10;19.67;;;16.30;;
11771;SDS011;12556;55.748;13.194;2023-05-16T04:30:37;24.20;;;15.73;;
11771;SDS011;12556;55.748;13.194;2023-05-16T04:33:06;21.77;;;16.03;;
11771;SDS011;12556;55.748;13.194;2023-05-16T04:35:39;26.57;;;18.13;;
11771;SDS011;12556;55.748;13.194;2023-05-16T04:38:06;23.63;;;15.90;;
11771;SDS011;12556;55.748;13.194;2023-05-16T04:40:33;24.43;;;15.90;;
11771;SDS011;12556;55.748;13.194;2023-05-16T04:43:00;21.33;;;16.33;;
11771;SDS011;12556;55.748;13.194;2023-05-16T04:45:27;20.97;;;14.40;;
11771;SDS011;12556;55.748;13.194;2023-05-16T04:47:54;24.23;;;16.20;;
11771;SDS011;12556;55.748;13.194;2023-05-16T04:50:22;20.67;;;14.27;;
11771;SDS011;12556;55.748;13.194;2023-05-16T04:52:50;30.30;;;15.73;;
11771;SDS011;12556;55.748;13.194;2023-05-16T04:55:17;21.17;;;14.73;;
11771;SDS011;12556;55.748;13.194;2023-05-16T04:57:44;23.63;;;15.57;;
11771;SDS011;12556;55.748;13.194;2023-05-16T05:00:11;29.00;;;16.20;;
11771;SDS011;12556;55.748;13.194;2023-05-16T05:02:39;23.80;;;15.43;;
11771;SDS011;12556;55.748;13.194;2023-05-16T05:05:06;26.47;;;15.63;;
11771;SDS011;12556;55.748;13.194;2023-05-16T05:07:35;20.63;;;14.73;;
11771;SDS011;12556;55.748;13.194;2023-05-16T05:10:02;24.90;;;14.30;;
11771;SDS011;12556;55.748;13.194;2023-05-16T05:12:33;21.13;;;13.53;;
11771;SDS011;12556;55.748;13.194;2023-05-16T05:15:00;25.83;;;15.17;;
11771;SDS011;12556;55.748;13.194;2023-05-16T05:17:28;21.53;;;14.63;;
11771;SDS011;12556;55.748;13.194;2023-05-16T05:19:55;17.80;;;13.23;;
11771;SDS011;12556;55.748;13.194;2023-05-16T05:22:22;20.83;;;14.00;;
11771;SDS011;12556;55.748;13.194;2023-05-16T05:24:52;25.67;;;14.13;;
11771;SDS011;12556;55.748;13.194;2023-05-16T05:27:21;21.07;;;13.43;;
11771;SDS011;12556;55.748;13.194;2023-05-16T05:29:48;23.80;;;13.63;;
11771;SDS011;12556;55.748;13.194;2023-05-16T05:32:15;21.53;;;13.13;;
11771;SDS011;12556;55.748;13.194;2023-05-16T05:34:42;23.20;;;13.97;;
11771;SDS011;12556;55.748;13.194;2023-05-16T05:37:08;21.20;;;13.03;;
11771;SDS011;12556;55.748;13.194;2023-05-16T05:39:35;18.57;;;12.70;;
11771;SDS011;12556;55.748;13.194;2023-05-16T05:42:04;19.00;;;12.57;;
11771;SDS011;12556;55.748;13.194;2023-05-16T05:44:31;19.43;;;12.77;;
11771;SDS011;12556;55.748;13.194;2023-05-16T05:46:59;20.43;;;12.70;;
11771;SDS011;12556;55.748;13.194;2023-05-16T05:49:27;21.10;;;12.77;;
11771;SDS011;12556;55.748;13.194;2023-05-16T05:51:54;22.20;;;11.23;;
11771;SDS011;12556;55.748;13.194;2023-05-16T05:54:21;17.13;;;11.03;;
11771;SDS011;12556;55.748;13.194;2023-05-16T05:56:49;21.03;;;11.93;;
11771;SDS011;12556;55.748;13.194;2023-05-16T05:59:17;24.30;;;11.20;;
11771;SDS011;12556;55.748;13.194;2023-05-16T06:01:44;23.77;;;10.60;;
11771;SDS011;12556;55.748;13.194;2023-05-16T06:04:11;18.80;;;10.13;;
11771;SDS011;12556;55.748;13.194;2023-05-16T06:06:38;16.73;;;9.87;;
11771;SDS011;12556;55.748;13.194;2023-05-16T06:09:05;14.33;;;9.77;;
11771;SDS011;12556;55.748;13.194;2023-05-16T06:11:32;16.10;;;10.10;;
11771;SDS011;12556;55.748;13.194;2023-05-16T06:13:59;16.10;;;9.80;;
11771;SDS011;12556;55.748;13.194;2023-05-16T06:16:27;20.60;;;10.07;;
11771;SDS011;12556;55.748;13.194;2023-05-16T06:18:54;19.47;;;10.00;;
11771;SDS011;12556;55.748;13.194;2023-05-16T06:21:21;13.83;;;9.37;;
11771;SDS011;12556;55.748;13.194;2023-05-16T06:23:48;17.60;;;11.10;;
11771;SDS011;12556;55.748;13.194;2023-05-16T06:26:15;18.70;;;10.57;;
11771;SDS011;12556;55.748;13.194;2023-05-16T06:28:42;14.27;;;10.10;;
11771;SDS011;12556;55.748;13.194;2023-05-16T06:31:09;16.53;;;9.73;;
11771;SDS011;12556;55.748;13.194;2023-05-16T06:33:37;21.63;;;8.60;;
11771;SDS011;12556;55.748;13.194;2023-05-16T06:36:05;18.60;;;9.67;;
11771;SDS011;12556;55.748;13.194;2023-05-16T06:38:32;13.50;;;9.03;;
11771;SDS011;12556;55.748;13.194;2023-05-16T06:40:59;16.17;;;9.10;;
11771;SDS011;12556;55.748;13.194;2023-05-16T06:43:26;19.50;;;8.77;;
11771;SDS011;12556;55.748;13.194;2023-05-16T06:45:53;13.73;;;7.90;;
11771;SDS011;12556;55.748;13.194;2023-05-16T06:48:22;19.13;;;9.93;;
11771;SDS011;12556;55.748;13.194;2023-05-16T06:50:50;15.07;;;7.90;;
11771;SDS011;12556;55.748;13.194;2023-05-16T06:53:17;15.23;;;7.53;;
11771;SDS011;12556;55.748;13.194;2023-05-16T06:55:45;14.80;;;7.70;;
11771;SDS011;12556;55.748;13.194;2023-05-16T06:58:12;15.77;;;7.87;;
11771;SDS011;12556;55.748;13.194;2023-05-16T07:00:39;15.53;;;7.60;;
11771;SDS011;12556;55.748;13.194;2023-05-16T07:03:08;12.40;;;7.80;;
11771;SDS011;12556;55.748;13.194;2023-05-16T07:05:35;14.40;;;7.17;;
11771;SDS011;12556;55.748;13.194;2023-05-16T07:08:03;14.17;;;7.60;;
11771;SDS011;12556;55.748;13.194;2023-05-16T07:10:30;12.87;;;7.47;;
11771;SDS011;12556;55.748;13.194;2023-05-16T07:12:57;11.33;;;7.27;;
11771;SDS011;12556;55.748;13.194;2023-05-16T07:15:25;12.80;;;7.60;;
11771;SDS011;12556;55.748;13.194;2023-05-16T07:17:52;13.87;;;7.60;;
11771;SDS011;12556;55.748;13.194;2023-05-16T07:20:19;15.80;;;7.57;;
11771;SDS011;12556;55.748;13.194;2023-05-16T07:22:46;13.43;;;7.50;;
11771;SDS011;12556;55.748;13.194;2023-05-16T07:25:15;15.40;;;7.50;;
11771;SDS011;12556;55.748;13.194;2023-05-16T07:27:42;20.37;;;7.87;;
11771;SDS011;12556;55.748;13.194;2023-05-16T07:30:10;14.20;;;7.60;;
11771;SDS011;12556;55.748;13.194;2023-05-16T07:32:38;10.73;;;7.47;;
11771;SDS011;12556;55.748;13.194;2023-05-16T07:35:05;14.87;;;7.47;;
11771;SDS011;12556;55.748;13.194;2023-05-16T07:37:33;12.27;;;7.00;;
11771;SDS011;12556;55.748;13.194;2023-05-16T07:40:00;9.80;;;6.10;;
11771;SDS011;12556;55.748;13.194;2023-05-16T07:42:30;12.30;;;6.97;;
11771;SDS011;12556;55.748;13.194;2023-05-16T07:44:57;11.80;;;7.13;;
11771;SDS011;12556;55.748;13.194;2023-05-16T07:47:24;12.87;;;7.27;;
11771;SDS011;12556;55.748;13.194;2023-05-16T07:49:51;14.50;;;7.40;;
11771;SDS011;12556;55.748;13.194;2023-05-16T07:52:18;12.87;;;7.30;;
11771;SDS011;12556;55.748;13.194;2023-05-16T07:54:45;14.37;;;7.50;;
11771;SDS011;12556;55.748;13.194;2023-05-16T07:57:12;15.20;;;7.50;;
11771;SDS011;12556;55.748;13.194;2023-05-16T07:59:41;10.57;;;6.43;;
11771;SDS011;12556;55.748;13.194;2023-05-16T08:02:09;11.90;;;5.73;;
11771;SDS011;12556;55.748;13.194;2023-05-16T08:04:36;12.00;;;5.93;;
11771;SDS011;12556;55.748;13.194;2023-05-16T08:07:03;14.50;;;5.97;;
11771;SDS011;12556;55.748;13.194;2023-05-16T08:09:31;11.77;;;6.40;;
11771;SDS011;12556;55.748;13.194;2023-05-16T08:11:57;11.57;;;6.07;;
11771;SDS011;12556;55.748;13.194;2023-05-16T08:14:27;12.63;;;5.77;;
11771;SDS011;12556;55.748;13.194;2023-05-16T08:16:57;12.33;;;6.10;;
11771;SDS011;12556;55.748;13.194;2023-05-16T08:19:24;9.43;;;4.83;;
11771;SDS011;12556;55.748;13.194;2023-05-16T08:21:51;10.77;;;4.77;;
11771;SDS011;12556;55.748;13.194;2023-05-16T08:24:19;10.07;;;5.20;;
11771;SDS011;12556;55.748;13.194;2023-05-16T08:26:45;14.63;;;5.27;;
11771;SDS011;12556;55.748;13.194;2023-05-16T08:29:13;9.70;;;5.37;;
11771;SDS011;12556;55.748;13.194;2023-05-16T08:31:41;12.83;;;5.10;;
11771;SDS011;12556;55.748;13.194;2023-05-16T08:34:09;10.67;;;5.50;;
11771;SDS011;12556;55.748;13.194;2023-05-16T08:36:36;13.43;;;5.53;;
11771;SDS011;12556;55.748;13.194;2023-05-16T08:39:03;15.17;;;5.77;;
11771;SDS011;12556;55.748;13.194;2023-05-16T08:41:31;12.97;;;5.70;;
11771;SDS011;12556;55.748;13.194;2023-05-16T08:43:58;12.67;;;5.60;;
11771;SDS011;12556;55.748;13.194;2023-05-16T08:46:25;13.90;;;4.70;;
11771;SDS011;12556;55.748;13.194;2023-05-16T08:48:57;10.20;;;5.07;;
11771;SDS011;12556;55.748;13.194;2023-05-16T08:51:28;7.47;;;4.27;;
11771;SDS011;12556;55.748;13.194;2023-05-16T08:54:01;12.50;;;4.77;;
11771;SDS011;12556;55.748;13.194;2023-05-16T08:56:31;9.17;;;5.00;;
11771;SDS011;12556;55.748;13.194;2023-05-16T08:59:00;12.97;;;4.73;;
11771;SDS011;12556;55.748;13.194;2023-05-16T09:01:28;10.27;;;4.90;;
11771;SDS011;12556;55.748;13.194;2023-05-16T09:03:56;15.03;;;5.00;;
11771;SDS011;12556;55.748;13.194;2023-05-16T09:06:24;9.43;;;4.50;;
11771;SDS011;12556;55.748;13.194;2023-05-16T09:08:52;9.63;;;4.50;;
11771;SDS011;12556;55.748;13.194;2023-05-16T09:11:19;12.10;;;4.37;;
11771;SDS011;12556;55.748;13.194;2023-05-16T09:13:46;8.37;;;4.20;;
11771;SDS011;12556;55.748;13.194;2023-05-16T09:16:14;13.07;;;4.10;;
11771;SDS011;12556;55.748;13.194;2023-05-16T09:18:42;7.53;;;4.37;;
11771;SDS011;12556;55.748;13.194;2023-05-16T09:21:10;8.30;;;4.00;;
11771;SDS011;12556;55.748;13.194;2023-05-16T09:23:38;11.27;;;4.33;;
11771;SDS011;12556;55.748;13.194;2023-05-16T09:26:08;10.90;;;4.43;;
11771;SDS011;12556;55.748;13.194;2023-05-16T09:28:36;7.60;;;3.73;;
11771;SDS011;12556;55.748;13.194;2023-05-16T09:31:03;11.77;;;3.70;;
11771;SDS011;12556;55.748;13.194;2023-05-16T09:33:44;10.63;;;3.63;;
11771;SDS011;12556;55.748;13.194;2023-05-16T09:36:11;8.90;;;4.00;;
11771;SDS011;12556;55.748;13.194;2023-05-16T09:38:39;10.03;;;4.10;;
11771;SDS011;12556;55.748;13.194;2023-05-16T09:41:09;7.43;;;3.67;;
11771;SDS011;12556;55.748;13.194;2023-05-16T09:43:37;9.90;;;4.07;;
11771;SDS011;12556;55.748;13.194;2023-05-16T09:46:05;11.47;;;4.00;;
11771;SDS011;12556;55.748;13.194;2023-05-16T09:48:32;9.00;;;3.50;;
11771;SDS011;12556;55.748;13.194;2023-05-16T09:50:59;8.53;;;3.97;;
11771;SDS011;12556;55.748;13.194;2023-05-16T09:53:30;9.73;;;3.57;;
11771;SDS011;12556;55.748;13.194;2023-05-16T09:55:58;10.47;;;4.00;;
11771;SDS011;12556;55.748;13.194;2023-05-16T09:58:28;9.47;;;3.33;;
11771;SDS011;12556;55.748;13.194;2023-05-16T10:00:57;8.93;;;3.73;;
11771;SDS011;12556;55.748;13.194;2023-05-16T10:03:25;8.67;;;3.63;;
11771;SDS011;12556;55.748;13.194;2023-05-16T10:05:52;8.83;;;3.43;;
11771;SDS011;12556;55.748;13.194;2023-05-16T10:08:20;11.50;;;3.57;;
11771;SDS011;12556;55.748;13.194;2023-05-16T10:10:49;15.80;;;3.53;;
11771;SDS011;12556;55.748;13.194;2023-05-16T10:13:18;9.53;;;2.83;;
11771;SDS011;12556;55.748;13.194;2023-05-16T10:15:48;9.20;;;3.50;;
11771;SDS011;12556;55.748;13.194;2023-05-16T10:18:16;7.67;;;3.40;;
11771;SDS011;12556;55.748;13.194;2023-05-16T10:20:45;8.57;;;3.13;;
11771;SDS011;12556;55.748;13.194;2023-05-16T10:23:16;7.70;;;3.50;;
11771;SDS011;12556;55.748;13.194;2023-05-16T10:25:44;12.00;;;3.40;;
11771;SDS011;12556;55.748;13.194;2023-05-16T10:28:13;13.23;;;4.60;;
11771;SDS011;12556;55.748;13.194;2023-05-16T10:30:40;8.37;;;3.80;;
11771;SDS011;12556;55.748;13.194;2023-05-16T10:33:10;13.90;;;3.80;;
11771;SDS011;12556;55.748;13.194;2023-05-16T10:35:39;10.70;;;3.80;;
11771;SDS011;12556;55.748;13.194;2023-05-16T10:38:06;10.40;;;3.90;;
11771;SDS011;12556;55.748;13.194;2023-05-16T10:40:36;7.77;;;3.83;;
11771;SDS011;12556;55.748;13.194;2023-05-16T10:43:05;11.40;;;3.80;;
11771;SDS011;12556;55.748;13.194;2023-05-16T10:45:33;7.73;;;4.07;;
11771;SDS011;12556;55.748;13.194;2023-05-16T10:48:05;10.80;;;3.60;;
11771;SDS011;12556;55.748;13.194;2023-05-16T10:50:35;10.37;;;4.17;;
11771;SDS011;12556;55.748;13.194;2023-05-16T10:53:13;9.93;;;3.47;;
11771;SDS011;12556;55.748;13.194;2023-05-16T10:55:45;8.63;;;3.37;;
11771;SDS011;12556;55.748;13.194;2023-05-16T10:58:21;11.23;;;3.90;;
11771;SDS011;12556;55.748;13.194;2023-05-16T11:06:42;8.50;;;3.53;;
11771;SDS011;12556;55.748;13.194;2023-05-16T11:09:21;7.63;;;3.30;;
11771;SDS011;12556;55.748;13.194;2023-05-16T11:12:00;9.13;;;3.30;;
11771;SDS011;12556;55.748;13.194;2023-05-16T11:14:28;11.07;;;3.30;;
11771;SDS011;12556;55.748;13.194;2023-05-16T11:17:02;10.83;;;3.20;;
11771;SDS011;12556;55.748;13.194;2023-05-16T11:19:34;10.87;;;3.50;;
11771;SDS011;12556;55.748;13.194;2023-05-16T11:22:11;9.87;;;3.70;;
11771;SDS011;12556;55.748;13.194;2023-05-16T11:24:48;9.20;;;4.13;;
11771;SDS011;12556;55.748;13.194;2023-05-16T11:27:24;12.50;;;3.93;;
11771;SDS011;12556;55.748;13.194;2023-05-16T11:29:53;7.73;;;3.13;;
11771;SDS011;12556;55.748;13.194;2023-05-16T11:32:21;7.40;;;3.40;;
11771;SDS011;12556;55.748;13.194;2023-05-16T11:34:49;10.50;;;3.10;;
11771;SDS011;12556;55.748;13.194;2023-05-16T11:37:18;7.50;;;3.30;;
11771;SDS011;12556;55.748;13.194;2023-05-16T11:39:46;10.50;;;3.60;;
11771;SDS011;12556;55.748;13.194;2023-05-16T11:42:13;8.07;;;3.53;;
11771;SDS011;12556;55.748;13.194;2023-05-16T11:44:41;9.47;;;4.03;;
11771;SDS011;12556;55.748;13.194;2023-05-16T11:47:09;10.27;;;4.07;;
11771;SDS011;12556;55.748;13.194;2023-05-16T11:49:36;7.77;;;3.93;;
11771;SDS011;12556;55.748;13.194;2023-05-16T11:52:06;9.87;;;3.77;;
11771;SDS011;12556;55.748;13.194;2023-05-16T11:54:35;13.50;;;4.20;;
11771;SDS011;12556;55.748;13.194;2023-05-16T11:57:04;9.88;;;4.03;;
11771;SDS011;12556;55.748;13.194;2023-05-16T11:59:32;7.85;;;3.55;;
11771;SDS011;12556;55.748;13.194;2023-05-16T12:02:02;10.18;;;3.95;;
11771;SDS011;12556;55.748;13.194;2023-05-16T12:04:32;9.40;;;3.83;;
11771;SDS011;12556;55.748;13.194;2023-05-16T12:06:59;8.13;;;4.15;;
11771;SDS011;12556;55.748;13.194;2023-05-16T12:09:27;6.07;;;3.40;;
11771;SDS011;12556;55.748;13.194;2023-05-16T12:11:55;10.10;;;3.60;;
11771;SDS011;12556;55.748;13.194;2023-05-16T12:14:22;7.60;;;3.40;;
11771;SDS011;12556;55.748;13.194;2023-05-16T12:16:50;9.10;;;3.97;;
11771;SDS011;12556;55.748;13.194;2023-05-16T12:19:18;10.33;;;3.90;;
11771;SDS011;12556;55.748;13.194;2023-05-16T12:21:47;7.63;;;3.40;;
11771;SDS011;12556;55.748;13.194;2023-05-16T12:24:17;10.43;;;3.47;;
11771;SDS011;12556;55.748;13.194;2023-05-16T12:26:45;9.55;;;4.53;;
11771;SDS011;12556;55.748;13.194;2023-05-16T12:29:13;12.77;;;4.13;;
11771;SDS011;12556;55.748;13.194;2023-05-16T12:31:40;12.67;;;4.13;;
11771;SDS011;12556;55.748;13.194;2023-05-16T12:34:14;10.50;;;3.77;;
11771;SDS011;12556;55.748;13.194;2023-05-16T12:36:43;9.73;;;3.83;;
11771;SDS011;12556;55.748;13.194;2023-05-16T12:39:10;6.90;;;3.40;;
11771;SDS011;12556;55.748;13.194;2023-05-16T12:41:40;10.53;;;3.90;;
11771;SDS011;12556;55.748;13.194;2023-05-16T12:44:13;7.97;;;3.80;;
11771;SDS011;12556;55.748;13.194;2023-05-16T12:46:42;8.40;;;4.20;;
11771;SDS011;12556;55.748;13.194;2023-05-16T12:49:10;8.83;;;3.47;;
11771;SDS011;12556;55.748;13.194;2023-05-16T12:51:37;8.93;;;3.70;;
11771;SDS011;12556;55.748;13.194;2023-05-16T12:54:07;13.17;;;4.83;;
11771;SDS011;12556;55.748;13.194;2023-05-16T12:56:36;8.30;;;3.30;;
11771;SDS011;12556;55.748;13.194;2023-05-16T12:59:04;7.77;;;3.37;;
11771;SDS011;12556;55.748;13.194;2023-05-16T13:01:33;7.57;;;3.40;;
11771;SDS011;12556;55.748;13.194;2023-05-16T13:04:00;10.73;;;3.83;;
11771;SDS011;12556;55.748;13.194;2023-05-16T13:06:28;14.00;;;3.40;;
11771;SDS011;12556;55.748;13.194;2023-05-16T13:08:55;13.50;;;3.73;;
11771;SDS011;12556;55.748;13.194;2023-05-16T13:11:22;9.97;;;3.80;;
11771;SDS011;12556;55.748;13.194;2023-05-16T13:13:50;10.83;;;3.50;;
11771;SDS011;12556;55.748;13.194;2023-05-16T13:16:17;9.10;;;3.97;;
11771;SDS011;12556;55.748;13.194;2023-05-16T13:18:46;8.20;;;3.13;;
11771;SDS011;12556;55.748;13.194;2023-05-16T13:21:13;7.70;;;3.57;;
11771;SDS011;12556;55.748;13.194;2023-05-16T13:23:40;11.20;;;4.23;;
11771;SDS011;12556;55.748;13.194;2023-05-16T13:26:07;10.50;;;3.93;;
11771;SDS011;12556;55.748;13.194;2023-05-16T13:28:35;11.80;;;3.83;;
11771;SDS011;12556;55.748;13.194;2023-05-16T13:31:04;14.77;;;3.57;;
11771;SDS011;12556;55.748;13.194;2023-05-16T13:33:31;14.33;;;4.13;;
11771;SDS011;12556;55.748;13.194;2023-05-16T13:36:06;10.97;;;4.00;;
11771;SDS011;12556;55.748;13.194;2023-05-16T13:38:34;9.43;;;3.13;;
11771;SDS011;12556;55.748;13.194;2023-05-16T13:41:01;11.83;;;3.37;;
11771;SDS011;12556;55.748;13.194;2023-05-16T13:43:28;9.63;;;3.00;;
11771;SDS011;12556;55.748;13.194;2023-05-16T13:45:55;8.77;;;3.47;;
11771;SDS011;12556;55.748;13.194;2023-05-16T13:48:22;6.37;;;2.97;;
11771;SDS011;12556;55.748;13.194;2023-05-16T13:50:49;8.47;;;2.50;;
11771;SDS011;12556;55.748;13.194;2023-05-16T13:53:19;11.27;;;3.70;;
11771;SDS011;12556;55.748;13.194;2023-05-16T13:55:45;11.70;;;3.03;;
11771;SDS011;12556;55.748;13.194;2023-05-16T13:58:12;8.73;;;2.80;;
11771;SDS011;12556;55.748;13.194;2023-05-16T14:00:40;11.00;;;3.40;;
11771;SDS011;12556;55.748;13.194;2023-05-16T14:03:07;8.53;;;3.40;;
11771;SDS011;12556;55.748;13.194;2023-05-16T14:05:34;12.13;;;3.50;;
11771;SDS011;12556;55.748;13.194;2023-05-16T14:08:01;13.27;;;3.80;;
11771;SDS011;12556;55.748;13.194;2023-05-16T14:10:29;8.60;;;3.13;;
11771;SDS011;12556;55.748;13.194;2023-05-16T14:12:56;12.90;;;3.20;;
11771;SDS011;12556;55.748;13.194;2023-05-16T14:15:23;8.30;;;3.50;;
11771;SDS011;12556;55.748;13.194;2023-05-16T14:17:50;10.37;;;3.60;;
11771;SDS011;12556;55.748;13.194;2023-05-16T14:20:17;12.07;;;3.40;;
11771;SDS011;12556;55.748;13.194;2023-05-16T14:22:44;11.70;;;3.33;;
11771;SDS011;12556;55.748;13.194;2023-05-16T14:25:11;8.63;;;3.27;;
11771;SDS011;12556;55.748;13.194;2023-05-16T14:27:40;10.00;;;3.13;;
11771;SDS011;12556;55.748;13.194;2023-05-16T14:30:07;7.90;;;3.33;;
11771;SDS011;12556;55.748;13.194;2023-05-16T14:32:34;9.30;;;3.03;;
11771;SDS011;12556;55.748;13.194;2023-05-16T14:35:01;13.03;;;3.87;;